createdAt,value
2023-08-11T00:01:45.894Z,77.48
2023-08-11T00:04:49.362Z,78.00
2023-08-11T00:07:52.663Z,77.76
2023-08-11T00:10:56.573Z,78.48
2023-08-11T00:13:59.614Z,79.22
2023-08-11T00:17:04.705Z,79.15
2023-08-11T00:20:10.311Z,79.39
2023-08-11T00:23:14.142Z,79.72
2023-08-11T00:26:17.701Z,78.88
2023-08-11T00:29:21.530Z,79.22
2023-08-11T00:32:25.488Z,79.52
2023-08-11T00:35:29.819Z,78.18
2023-08-11T00:38:40.148Z,77.96
2023-08-11T00:41:43.954Z,78.51
2023-08-11T00:44:47.681Z,76.97
2023-08-11T00:47:51.802Z,77.25
2023-08-11T00:50:59.478Z,77.55
2023-08-11T00:54:03.426Z,77.41
2023-08-11T00:57:07.437Z,77.48
2023-08-11T01:00:15.431Z,76.73
2023-08-11T01:03:21.337Z,76.62
2023-08-11T01:06:44.974Z,77.42
2023-08-11T01:09:58.556Z,77.59
2023-08-11T01:13:08.520Z,77.57
2023-08-11T01:16:13.341Z,77.42
2023-08-11T01:19:30.748Z,77.36
2023-08-11T01:22:35.862Z,76.82
2023-08-11T01:25:40.886Z,76.93
2023-08-11T01:28:44.681Z,76.96
2023-08-11T01:31:48.814Z,77.88
2023-08-11T01:34:52.378Z,77.94
2023-08-11T01:37:56.805Z,78.75
2023-08-11T01:41:01.624Z,79.16
2023-08-11T01:44:09.368Z,78.74
2023-08-11T01:47:16.149Z,78.38
2023-08-11T01:50:24.666Z,78.48
2023-08-11T01:53:30.476Z,77.50
2023-08-11T01:56:36.682Z,76.73
2023-08-11T01:59:41.928Z,75.09
2023-08-11T02:02:48.707Z,74.91
2023-08-11T02:05:53.153Z,75.28
2023-08-11T02:08:58.467Z,74.57
2023-08-11T02:12:05.158Z,74.99
2023-08-11T02:15:10.732Z,75.85
2023-08-11T02:18:15.554Z,75.27
2023-08-11T02:21:21.800Z,75.25
2023-08-11T02:24:27.297Z,75.94
2023-08-11T02:27:32.936Z,76.60
2023-08-11T02:30:39.886Z,77.49
2023-08-11T02:33:44.568Z,77.15
2023-08-11T02:36:49.073Z,78.07
2023-08-11T02:39:53.172Z,78.01
2023-08-11T02:42:59.861Z,78.82
2023-08-11T02:46:04.444Z,79.88
2023-08-11T02:49:08.698Z,81.27
2023-08-11T02:52:14.957Z,82.19
2023-08-11T02:55:21.135Z,83.12
2023-08-11T02:58:26.281Z,83.66
2023-08-11T03:01:31.289Z,82.90
2023-08-11T03:04:38.444Z,83.96
2023-08-11T03:07:43.220Z,83.70
2023-08-11T03:10:56.713Z,84.46
2023-08-11T03:14:07.874Z,85.48
2023-08-11T03:17:13.524Z,85.37
2023-08-11T03:20:19.855Z,85.04
2023-08-11T03:23:24.592Z,84.36
2023-08-11T03:26:29.278Z,84.06
2023-08-11T03:29:33.855Z,84.21
2023-08-11T03:32:37.247Z,84.08
2023-08-11T03:35:42.559Z,83.43
2023-08-11T03:38:47.061Z,81.48
2023-08-11T03:41:52.787Z,82.71
2023-08-11T03:44:58.257Z,82.21
2023-08-11T03:48:04.228Z,81.12
2023-08-11T03:51:08.823Z,79.44
2023-08-11T03:54:13.224Z,80.17
2023-08-11T03:57:18.803Z,79.05
2023-08-11T04:00:23.094Z,79.79
2023-08-11T04:03:37.202Z,79.16
2023-08-11T04:06:40.401Z,77.96
2023-08-11T04:09:48.340Z,78.20
2023-08-11T04:12:53.526Z,77.45
2023-08-11T04:15:58.898Z,77.44
2023-08-11T04:19:02.035Z,76.36
2023-08-11T04:22:07.220Z,76.51
2023-08-11T04:25:12.636Z,76.68
2023-08-11T04:28:19.997Z,76.09
2023-08-11T04:31:24.219Z,76.57
2023-08-11T04:34:28.047Z,76.28
2023-08-11T04:37:32.687Z,76.29
2023-08-11T04:40:37.604Z,76.63
2023-08-11T04:43:41.722Z,76.43
2023-08-11T04:46:45.768Z,76.01
2023-08-11T04:49:49.920Z,75.69
2023-08-11T04:52:53.711Z,75.24
2023-08-11T04:55:57.992Z,75.68
2023-08-11T04:59:02.256Z,76.08
2023-08-11T05:02:06.284Z,75.28
2023-08-11T05:05:11.172Z,74.40
2023-08-11T05:08:15.494Z,74.10
2023-08-11T05:11:19.493Z,74.31
2023-08-11T05:14:25.172Z,74.26
2023-08-11T05:17:28.640Z,74.63
2023-08-11T05:20:32.960Z,74.94
2023-08-11T05:23:36.468Z,76.01
2023-08-11T05:26:40.476Z,76.69
2023-08-11T05:29:48.981Z,76.51
2023-08-11T05:32:53.395Z,76.24
2023-08-11T05:36:00.320Z,77.15
2023-08-11T05:39:06.376Z,78.31
2023-08-11T05:52:21.632Z,78.30
2023-08-11T05:55:25.754Z,78.30
2023-08-11T05:58:29.897Z,78.39
2023-08-11T06:01:33.047Z,78.79
2023-08-11T06:04:38.810Z,78.42
2023-08-11T06:07:49.162Z,77.43
2023-08-11T06:11:00.480Z,76.89
2023-08-11T06:14:05.295Z,77.52
2023-08-11T06:17:12.316Z,77.07
2023-08-11T06:20:20.657Z,76.51
2023-08-11T06:23:30.907Z,76.53
2023-08-11T06:26:38.299Z,76.01
2023-08-11T06:29:51.815Z,76.18
2023-08-11T06:32:59.834Z,74.92
2023-08-11T06:36:07.007Z,74.56
2023-08-11T06:39:10.394Z,73.59
2023-08-11T06:42:14.599Z,72.62
2023-08-11T06:45:26.036Z,72.17
2023-08-11T06:48:30.485Z,71.15
2023-08-11T06:51:34.226Z,71.95
2023-08-11T06:54:38.486Z,70.91
2023-08-11T06:57:44.157Z,70.82
2023-08-11T07:00:49.819Z,71.90
2023-08-11T07:03:54.044Z,70.10
2023-08-11T07:06:58.575Z,69.06
2023-08-11T07:10:04.320Z,68.11
2023-08-11T07:13:08.804Z,67.62
2023-08-11T07:16:14.812Z,67.99
2023-08-11T07:19:20.381Z,67.13
2023-08-11T07:22:24.825Z,66.93
2023-08-11T07:25:31.659Z,66.34
2023-08-11T07:28:35.613Z,64.87
2023-08-11T07:31:43.362Z,64.14
2023-08-11T07:34:47.180Z,62.48
2023-08-11T07:37:53.391Z,58.65
2023-08-11T07:40:57.329Z,56.84
2023-08-11T07:44:01.712Z,56.56
2023-08-11T07:47:05.585Z,57.67
2023-08-11T07:50:10.208Z,58.34
2023-08-11T07:53:14.209Z,60.01
2023-08-11T07:56:19.478Z,61.27
2023-08-11T07:59:23.565Z,62.82
2023-08-11T08:02:28.574Z,63.92
2023-08-11T08:05:32.960Z,64.40
2023-08-11T08:08:41.268Z,65.04
2023-08-11T08:11:45.326Z,65.15
2023-08-11T08:14:48.980Z,65.10
2023-08-11T08:17:55.060Z,66.21
2023-08-11T08:20:59.298Z,66.17
2023-08-11T08:24:05.986Z,65.02
2023-08-11T08:27:11.853Z,63.27
2023-08-11T08:30:15.420Z,61.74
2023-08-11T08:33:19.752Z,61.68
2023-08-11T08:36:23.444Z,61.75
2023-08-11T08:39:29.110Z,61.14
2023-08-11T08:42:33.675Z,62.73
2023-08-11T08:45:39.476Z,62.14
2023-08-11T08:49:03.394Z,62.19
2023-08-11T08:52:10.198Z,61.93
2023-08-11T08:55:14.902Z,63.04
2023-08-11T08:58:18.760Z,62.65
2023-08-11T09:01:24.164Z,63.31
2023-08-11T09:04:28.761Z,62.72
2023-08-11T09:07:32.588Z,62.70
2023-08-11T09:10:38.494Z,61.19
2023-08-11T09:13:45.068Z,58.74
2023-08-11T09:16:53.602Z,56.34
2023-08-11T09:19:57.380Z,55.85
2023-08-11T09:23:01.156Z,55.53
2023-08-11T09:26:04.457Z,55.84
2023-08-11T09:29:08.378Z,54.04
2023-08-11T09:32:12.838Z,53.30
2023-08-11T09:35:16.829Z,54.24
2023-08-11T09:38:20.301Z,55.27
2023-08-11T09:41:24.645Z,56.05
2023-08-11T09:44:28.259Z,57.26
2023-08-11T09:47:34.525Z,58.84
2023-08-11T09:50:39.365Z,59.80
2023-08-11T09:53:44.232Z,61.55
2023-08-11T09:56:48.758Z,62.26
2023-08-11T09:59:57.411Z,63.00
2023-08-11T10:03:07.873Z,63.51
2023-08-11T10:06:21.945Z,64.41
2023-08-11T10:09:28.085Z,64.97
2023-08-11T10:12:32.494Z,65.85
2023-08-11T10:15:40.179Z,66.10
2023-08-11T10:18:45.313Z,67.42
2023-08-11T10:21:50.001Z,67.84
2023-08-11T10:24:54.525Z,67.79
2023-08-11T10:27:59.317Z,68.03
2023-08-11T10:31:07.090Z,68.72
2023-08-11T10:34:11.041Z,70.39
2023-08-11T10:37:17.172Z,72.18
2023-08-11T10:40:21.171Z,73.57
2023-08-11T10:43:34.728Z,75.10
2023-08-11T10:46:38.657Z,76.33
2023-08-11T10:49:45.436Z,75.97
2023-08-11T10:52:51.112Z,75.97
2023-08-11T10:56:03.602Z,78.26
2023-08-11T10:59:10.412Z,79.04
2023-08-11T11:02:15.324Z,81.52
2023-08-11T11:05:24.457Z,82.50
2023-08-11T11:08:28.419Z,84.26
2023-08-11T11:11:35.519Z,84.26
2023-08-11T11:14:39.741Z,83.16
2023-08-11T11:17:45.744Z,82.04
2023-08-11T11:20:50.554Z,81.51
2023-08-11T11:23:55.153Z,81.41
2023-08-11T11:27:00.915Z,80.77
2023-08-11T11:30:05.934Z,81.29
2023-08-11T11:33:09.795Z,81.83
2023-08-11T11:36:15.062Z,82.29
2023-08-11T11:39:20.994Z,81.92
2023-08-11T11:42:30.044Z,81.32
2023-08-11T11:45:36.925Z,81.95
2023-08-11T11:52:29.557Z,82.82
2023-08-11T11:55:35.972Z,83.04
2023-08-11T11:58:40.790Z,83.12
2023-08-11T12:01:45.996Z,83.33
2023-08-11T12:04:53.526Z,83.43
2023-08-11T12:07:59.025Z,83.32
2023-08-11T12:11:07.520Z,83.24
2023-08-11T12:14:14.076Z,83.04
2023-08-11T12:17:18.728Z,82.87
2023-08-11T12:20:26.980Z,82.84
2023-08-11T12:23:30.285Z,83.10
2023-08-11T12:26:34.164Z,83.35
2023-08-11T12:29:37.954Z,83.05
2023-08-11T12:32:41.726Z,82.97
2023-08-11T12:39:04.797Z,83.28
2023-08-11T12:45:39.195Z,83.60
2023-08-11T12:48:50.396Z,83.69
2023-08-11T12:52:01.338Z,83.92
2023-08-11T12:55:05.117Z,83.97
2023-08-11T12:58:09.570Z,83.00
2023-08-11T13:01:14.976Z,83.28
2023-08-11T13:04:20.901Z,83.25
2023-08-11T13:07:24.496Z,82.07
2023-08-11T13:10:28.828Z,81.97
2023-08-11T13:13:32.715Z,82.05
2023-08-11T13:16:37.861Z,82.30
2023-08-11T13:19:42.121Z,82.14
2023-08-11T13:22:46.609Z,81.42
2023-08-11T13:25:51.577Z,81.45
2023-08-11T13:28:59.144Z,81.65
2023-08-11T13:32:03.241Z,81.94
2023-08-11T13:35:08.533Z,80.64
2023-08-11T13:38:14.177Z,81.15
2023-08-11T13:41:19.222Z,81.64
2023-08-11T13:44:23.091Z,81.81
2023-08-11T13:47:27.375Z,82.34
2023-08-11T13:50:31.383Z,82.43
2023-08-11T13:53:35.249Z,82.71
2023-08-11T13:56:39.372Z,83.01
2023-08-11T13:59:43.670Z,82.66
2023-08-11T14:02:47.127Z,82.21
2023-08-11T14:05:51.384Z,82.62
2023-08-11T14:08:54.837Z,83.05
2023-08-11T14:11:58.658Z,82.89
2023-08-11T14:25:06.980Z,84.12
2023-08-11T14:46:10.723Z,84.98
2023-08-11T15:03:16.116Z,82.95
2023-08-11T15:06:20.571Z,83.26
2023-08-11T15:09:24.710Z,81.86
2023-08-11T15:12:30.759Z,82.69
2023-08-11T15:15:35.802Z,82.56
2023-08-11T15:18:42.365Z,82.58
2023-08-11T15:21:47.819Z,82.33
2023-08-11T15:24:53.370Z,82.37
2023-08-11T15:27:58.138Z,82.35
2023-08-11T15:31:06.034Z,81.97
2023-08-11T15:34:11.149Z,82.10
2023-08-11T15:37:15.616Z,82.22
2023-08-11T15:40:20.007Z,81.55
2023-08-11T15:43:24.969Z,81.64
2023-08-11T15:46:29.224Z,81.86
2023-08-11T15:49:34.172Z,81.34
2023-08-11T15:52:39.024Z,81.61
2023-08-11T15:55:44.138Z,81.67
2023-08-11T15:58:49.398Z,81.48
2023-08-11T16:02:07.875Z,81.21
2023-08-11T16:05:13.912Z,81.33
2023-08-11T16:08:19.555Z,81.30
2023-08-11T16:11:23.423Z,81.08
2023-08-11T16:14:29.936Z,81.11
2023-08-11T16:17:35.878Z,81.30
2023-08-11T16:20:41.052Z,81.28
2023-08-11T16:23:46.593Z,81.17
2023-08-11T16:26:53.584Z,80.55
2023-08-11T16:29:57.584Z,80.26
2023-08-11T16:33:02.366Z,80.09
2023-08-11T16:36:07.354Z,80.07
2023-08-11T16:39:12.088Z,80.47
2023-08-11T16:42:19.491Z,80.71
2023-08-11T16:45:24.215Z,81.01
2023-08-11T16:48:29.256Z,80.58
2023-08-11T16:51:33.737Z,80.54
2023-08-11T16:54:37.817Z,79.62
2023-08-11T16:57:42.463Z,80.29
2023-08-11T17:00:48.857Z,79.89
2023-08-11T17:03:55.252Z,80.46
2023-08-11T17:07:00.504Z,79.93
2023-08-11T17:10:04.861Z,80.06
2023-08-11T17:13:09.439Z,80.14
2023-08-11T17:16:14.441Z,80.13
2023-08-11T17:19:19.222Z,80.42
2023-08-11T17:22:22.937Z,80.89
2023-08-11T17:25:27.710Z,80.83
2023-08-11T17:28:31.678Z,80.96
2023-08-11T17:31:36.541Z,80.86
2023-08-11T17:34:54.145Z,81.21
2023-08-11T17:38:01.507Z,81.35
2023-08-11T17:41:05.775Z,81.79
2023-08-11T17:44:10.474Z,81.65
2023-08-11T17:47:15.060Z,81.81
2023-08-11T17:50:19.326Z,81.94
2023-08-11T17:53:22.982Z,82.11
2023-08-11T17:56:27.990Z,81.66
2023-08-11T17:59:32.675Z,81.91
2023-08-11T18:02:36.752Z,81.92
2023-08-11T18:05:41.654Z,82.01
2023-08-11T18:08:46.506Z,81.45
2023-08-11T18:11:50.629Z,81.86
2023-08-11T18:14:56.675Z,81.55
2023-08-11T18:18:01.285Z,82.08
2023-08-11T18:21:18.647Z,82.35
2023-08-11T18:24:24.800Z,82.51
2023-08-11T18:27:31.832Z,82.44
2023-08-11T18:30:36.607Z,82.68
2023-08-11T18:33:41.504Z,82.87
2023-08-11T18:36:46.044Z,83.07
2023-08-11T18:39:50.334Z,82.98
2023-08-11T18:42:54.917Z,82.87
2023-08-11T18:45:59.991Z,83.31
2023-08-11T18:49:04.289Z,83.18
2023-08-11T18:52:09.358Z,83.47
2023-08-11T18:55:13.816Z,83.70
2023-08-11T18:58:18.281Z,84.03
2023-08-11T19:01:23.457Z,84.56
2023-08-11T19:04:27.940Z,85.19
2023-08-11T19:07:32.323Z,85.68
2023-08-11T19:10:37.273Z,85.94
2023-08-11T19:13:41.274Z,86.55
2023-08-11T19:16:45.894Z,86.66
2023-08-11T19:19:50.063Z,86.65
2023-08-11T19:22:55.259Z,86.51
2023-08-11T19:25:59.188Z,86.71
2023-08-11T19:29:04.020Z,86.81
2023-08-11T19:32:09.794Z,87.01
2023-08-11T19:35:14.885Z,86.93
2023-08-11T19:38:19.690Z,87.26
2023-08-11T19:41:24.555Z,87.31
2023-08-11T19:44:28.881Z,87.79
2023-08-11T19:47:33.496Z,87.73
2023-08-11T19:50:37.159Z,87.93
2023-08-11T19:53:42.195Z,87.87
2023-08-11T19:56:46.722Z,88.01
2023-08-11T19:59:51.839Z,87.40
2023-08-11T20:02:56.227Z,87.34
2023-08-11T20:06:01.706Z,87.35
2023-08-11T20:09:09.678Z,87.42
2023-08-11T20:12:14.278Z,87.30
2023-08-11T20:15:18.987Z,87.35
2023-08-11T20:21:28.381Z,87.33
2023-08-11T20:24:33.092Z,87.40
2023-08-11T20:27:37.005Z,87.53
2023-08-11T20:30:44.770Z,87.25
2023-08-11T20:33:48.915Z,87.59
2023-08-11T20:36:53.818Z,87.30
2023-08-11T20:39:58.386Z,87.35
2023-08-11T20:43:03.820Z,87.15
2023-08-11T20:46:08.732Z,86.51
2023-08-11T20:49:12.728Z,86.74
2023-08-11T20:52:17.217Z,86.45
2023-08-11T20:55:21.573Z,86.14
2023-08-11T20:58:26.452Z,86.79
2023-08-11T21:01:31.536Z,86.83
2023-08-11T21:04:36.485Z,86.56
2023-08-11T21:07:40.560Z,86.34
2023-08-11T21:10:49.518Z,85.70
2023-08-11T21:13:56.659Z,86.11
2023-08-11T21:17:02.960Z,86.17
2023-08-11T21:20:09.477Z,85.90
2023-08-11T21:23:14.029Z,85.66
2023-08-11T21:26:18.827Z,85.15
2023-08-11T21:29:22.966Z,84.78
2023-08-11T21:32:26.682Z,84.73
2023-08-11T21:35:31.051Z,84.74
2023-08-11T21:38:35.469Z,84.53
2023-08-11T21:41:39.564Z,84.74
2023-08-11T21:44:44.082Z,84.99
2023-08-11T21:47:48.723Z,84.75
2023-08-11T21:50:52.832Z,84.70
2023-08-11T21:53:56.929Z,84.56
2023-08-11T21:57:01.369Z,84.68
2023-08-11T22:00:06.855Z,84.34
2023-08-11T22:03:10.797Z,84.48
2023-08-11T22:06:16.640Z,84.84
2023-08-11T22:09:21.619Z,84.53
2023-08-11T22:12:25.925Z,84.41
2023-08-11T22:15:30.579Z,84.88
2023-08-11T22:18:34.136Z,84.86
2023-08-11T22:21:37.557Z,85.20
2023-08-11T22:24:45.978Z,85.31
2023-08-11T22:27:50.013Z,85.07
2023-08-11T22:30:53.910Z,84.52
2023-08-11T22:33:58.417Z,84.26
2023-08-11T22:37:02.778Z,83.93
2023-08-11T22:40:08.081Z,83.29
2023-08-11T22:43:13.026Z,82.97
2023-08-11T22:46:16.807Z,82.16
2023-08-11T22:49:21.390Z,81.62
2023-08-11T22:52:25.186Z,80.89
2023-08-11T22:55:31.988Z,80.44
2023-08-11T22:58:35.767Z,79.91
2023-08-11T23:01:40.100Z,79.47
2023-08-11T23:04:44.258Z,79.40
2023-08-11T23:07:48.740Z,79.33
2023-08-11T23:10:52.284Z,78.71
2023-08-11T23:13:56.695Z,78.32
2023-08-11T23:17:00.249Z,78.94
2023-08-11T23:20:07.057Z,79.36
2023-08-11T23:23:10.565Z,79.10
2023-08-11T23:26:13.813Z,78.84
2023-08-11T23:29:18.726Z,78.50
2023-08-11T23:32:22.332Z,77.60
2023-08-11T23:35:25.773Z,77.68
2023-08-11T23:38:29.499Z,77.75
2023-08-11T23:41:33.283Z,76.60
2023-08-11T23:44:37.920Z,75.96
2023-08-11T23:47:41.884Z,76.07
2023-08-11T23:50:45.497Z,74.92
2023-08-11T23:53:49.365Z,75.54
2023-08-11T23:56:53.456Z,75.86
2023-08-11T23:59:57.536Z,75.84
